sensor_id;sensor_type;location;lat;lon;timestamp;temperature;humidity
14779;DHT22;7481;53.750;10.570;2022-12-05T00:00:32;4.70;99.90
14779;DHT22;7481;53.750;10.570;2022-12-05T00:11:44;4.60;99.90
14779;DHT22;7481;53.750;10.570;2022-12-05T00:14:31;4.60;99.90
14779;DHT22;7481;53.750;10.570;2022-12-05T00:17:18;4.60;99.90
14779;DHT22;7481;53.750;10.570;2022-12-05T00:20:06;4.50;99.90
14779;DHT22;7481;53.750;10.570;2022-12-05T00:22:54;4.50;99.90
14779;DHT22;7481;53.750;10.570;2022-12-05T00:25:41;4.50;99.90
14779;DHT22;7481;53.750;10.570;2022-12-05T00:28:30;4.50;99.90
14779;DHT22;7481;53.750;10.570;2022-12-05T00:31:21;4.50;99.90
14779;DHT22;7481;53.750;10.570;2022-12-05T00:34:09;4.50;99.90
14779;DHT22;7481;53.750;10.570;2022-12-05T00:36:56;4.60;99.90
14779;DHT22;7481;53.750;10.570;2022-12-05T00:39:43;4.60;99.90
14779;DHT22;7481;53.750;10.570;2022-12-05T00:42:30;4.60;99.90
14779;DHT22;7481;53.750;10.570;2022-12-05T00:45:17;4.50;99.90
14779;DHT22;7481;53.750;10.570;2022-12-05T00:48:04;4.60;99.90
14779;DHT22;7481;53.750;10.570;2022-12-05T00:51:20;4.60;99.90
14779;DHT22;7481;53.750;10.570;2022-12-05T00:54:15;4.60;99.90
14779;DHT22;7481;53.750;10.570;2022-12-05T00:57:04;4.60;99.90
14779;DHT22;7481;53.750;10.570;2022-12-05T00:59:51;4.60;99.90
14779;DHT22;7481;53.750;10.570;2022-12-05T01:02:38;4.60;99.90
14779;DHT22;7481;53.750;10.570;2022-12-05T01:05:25;4.60;99.90
14779;DHT22;7481;53.750;10.570;2022-12-05T01:08:14;4.60;99.90
14779;DHT22;7481;53.750;10.570;2022-12-05T01:11:03;4.60;99.90
14779;DHT22;7481;53.750;10.570;2022-12-05T01:13:50;4.70;99.90
14779;DHT22;7481;53.750;10.570;2022-12-05T01:16:39;4.70;99.90
14779;DHT22;7481;53.750;10.570;2022-12-05T01:19:29;4.70;99.90
14779;DHT22;7481;53.750;10.570;2022-12-05T01:22:17;4.70;99.90
14779;DHT22;7481;53.750;10.570;2022-12-05T01:25:08;4.70;99.90
14779;DHT22;7481;53.750;10.570;2022-12-05T01:27:56;4.70;99.90
14779;DHT22;7481;53.750;10.570;2022-12-05T01:30:45;4.80;99.90
14779;DHT22;7481;53.750;10.570;2022-12-05T01:33:33;4.80;99.90
14779;DHT22;7481;53.750;10.570;2022-12-05T01:36:23;4.80;99.90
14779;DHT22;7481;53.750;10.570;2022-12-05T01:39:15;4.80;99.90
14779;DHT22;7481;53.750;10.570;2022-12-05T01:42:04;4.80;99.90
14779;DHT22;7481;53.750;10.570;2022-12-05T01:47:40;4.80;99.90
14779;DHT22;7481;53.750;10.570;2022-12-05T01:50:28;4.80;99.90
14779;DHT22;7481;53.750;10.570;2022-12-05T01:53:15;4.90;99.90
14779;DHT22;7481;53.750;10.570;2022-12-05T01:56:03;4.90;99.90
14779;DHT22;7481;53.750;10.570;2022-12-05T01:58:51;4.90;99.90
14779;DHT22;7481;53.750;10.570;2022-12-05T02:01:39;4.90;99.90
14779;DHT22;7481;53.750;10.570;2022-12-05T02:04:27;4.90;99.90
14779;DHT22;7481;53.750;10.570;2022-12-05T02:07:14;4.90;99.90
14779;DHT22;7481;53.750;10.570;2022-12-05T02:10:01;4.90;99.90
14779;DHT22;7481;53.750;10.570;2022-12-05T02:12:49;4.90;99.90
14779;DHT22;7481;53.750;10.570;2022-12-05T02:16:07;4.90;99.90
14779;DHT22;7481;53.750;10.570;2022-12-05T02:19:18;4.80;99.90
14779;DHT22;7481;53.750;10.570;2022-12-05T02:32:16;4.80;99.90
14779;DHT22;7481;53.750;10.570;2022-12-05T02:38:30;4.80;99.90
14779;DHT22;7481;53.750;10.570;2022-12-05T02:41:26;4.80;99.90
14779;DHT22;7481;53.750;10.570;2022-12-05T02:47:08;4.80;99.90
14779;DHT22;7481;53.750;10.570;2022-12-05T02:49:55;4.80;99.90
14779;DHT22;7481;53.750;10.570;2022-12-05T02:52:44;4.80;99.90
14779;DHT22;7481;53.750;10.570;2022-12-05T02:55:33;4.80;99.90
14779;DHT22;7481;53.750;10.570;2022-12-05T02:58:29;4.80;99.90
14779;DHT22;7481;53.750;10.570;2022-12-05T03:01:19;4.80;99.90
14779;DHT22;7481;53.750;10.570;2022-12-05T03:04:10;4.80;99.90
14779;DHT22;7481;53.750;10.570;2022-12-05T03:07:08;4.80;99.90
14779;DHT22;7481;53.750;10.570;2022-12-05T03:10:03;4.80;99.90
14779;DHT22;7481;53.750;10.570;2022-12-05T03:12:55;4.80;99.90
14779;DHT22;7481;53.750;10.570;2022-12-05T03:15:47;4.80;99.90
14779;DHT22;7481;53.750;10.570;2022-12-05T03:18:39;4.80;99.90
14779;DHT22;7481;53.750;10.570;2022-12-05T03:21:36;4.80;99.90
14779;DHT22;7481;53.750;10.570;2022-12-05T03:24:25;4.80;99.90
14779;DHT22;7481;53.750;10.570;2022-12-05T03:27:48;4.80;99.90
14779;DHT22;7481;53.750;10.570;2022-12-05T03:30:35;4.90;99.90
14779;DHT22;7481;53.750;10.570;2022-12-05T03:33:28;4.80;99.90
14779;DHT22;7481;53.750;10.570;2022-12-05T03:36:31;4.90;99.90
14779;DHT22;7481;53.750;10.570;2022-12-05T03:39:32;4.80;99.90
14779;DHT22;7481;53.750;10.570;2022-12-05T03:42:29;4.80;99.90
14779;DHT22;7481;53.750;10.570;2022-12-05T03:45:22;4.80;99.90
14779;DHT22;7481;53.750;10.570;2022-12-05T03:48:38;4.80;99.90
14779;DHT22;7481;53.750;10.570;2022-12-05T03:51:57;4.80;99.90
14779;DHT22;7481;53.750;10.570;2022-12-05T03:54:48;4.80;99.90
14779;DHT22;7481;53.750;10.570;2022-12-05T03:57:47;4.80;99.90
14779;DHT22;7481;53.750;10.570;2022-12-05T04:00:40;4.80;99.90
14779;DHT22;7481;53.750;10.570;2022-12-05T04:03:35;4.80;99.90
14779;DHT22;7481;53.750;10.570;2022-12-05T04:06:35;4.80;99.90
14779;DHT22;7481;53.750;10.570;2022-12-05T04:09:27;4.80;99.90
14779;DHT22;7481;53.750;10.570;2022-12-05T04:12:28;4.70;99.90
14779;DHT22;7481;53.750;10.570;2022-12-05T04:15:23;4.70;99.90
14779;DHT22;7481;53.750;10.570;2022-12-05T04:18:11;4.70;99.90
14779;DHT22;7481;53.750;10.570;2022-12-05T04:20:59;4.70;99.90
14779;DHT22;7481;53.750;10.570;2022-12-05T04:24:27;4.70;99.90
14779;DHT22;7481;53.750;10.570;2022-12-05T04:30:25;4.60;99.90
14779;DHT22;7481;53.750;10.570;2022-12-05T04:36:31;4.60;99.90
14779;DHT22;7481;53.750;10.570;2022-12-05T04:39:24;4.60;99.90
14779;DHT22;7481;53.750;10.570;2022-12-05T04:42:25;4.60;99.90
14779;DHT22;7481;53.750;10.570;2022-12-05T04:45:16;4.60;99.90
14779;DHT22;7481;53.750;10.570;2022-12-05T04:48:10;4.50;99.90
14779;DHT22;7481;53.750;10.570;2022-12-05T04:50:58;4.50;99.90
14779;DHT22;7481;53.750;10.570;2022-12-05T04:53:48;4.50;99.90
14779;DHT22;7481;53.750;10.570;2022-12-05T04:56:37;4.50;99.90
14779;DHT22;7481;53.750;10.570;2022-12-05T04:59:25;4.50;99.90
14779;DHT22;7481;53.750;10.570;2022-12-05T05:02:16;4.50;99.90
14779;DHT22;7481;53.750;10.570;2022-12-05T05:05:09;4.40;99.90
14779;DHT22;7481;53.750;10.570;2022-12-05T05:08:00;4.40;99.90
14779;DHT22;7481;53.750;10.570;2022-12-05T05:11:03;4.40;99.90
14779;DHT22;7481;53.750;10.570;2022-12-05T05:13:51;4.40;99.90
14779;DHT22;7481;53.750;10.570;2022-12-05T05:16:40;4.40;99.90
14779;DHT22;7481;53.750;10.570;2022-12-05T05:19:28;4.40;99.90
14779;DHT22;7481;53.750;10.570;2022-12-05T05:22:15;4.40;99.90
14779;DHT22;7481;53.750;10.570;2022-12-05T05:25:02;4.40;99.90
14779;DHT22;7481;53.750;10.570;2022-12-05T05:27:51;4.40;99.90
14779;DHT22;7481;53.750;10.570;2022-12-05T05:30:38;4.40;99.90
14779;DHT22;7481;53.750;10.570;2022-12-05T05:33:25;4.40;99.90
14779;DHT22;7481;53.750;10.570;2022-12-05T05:36:13;4.40;99.90
14779;DHT22;7481;53.750;10.570;2022-12-05T05:39:01;4.40;99.90
14779;DHT22;7481;53.750;10.570;2022-12-05T05:41:48;4.30;99.90
14779;DHT22;7481;53.750;10.570;2022-12-05T05:44:35;4.20;99.90
14779;DHT22;7481;53.750;10.570;2022-12-05T05:47:23;4.10;99.90
14779;DHT22;7481;53.750;10.570;2022-12-05T05:50:10;4.00;99.90
14779;DHT22;7481;53.750;10.570;2022-12-05T05:53:03;3.90;99.90
14779;DHT22;7481;53.750;10.570;2022-12-05T05:55:50;3.90;99.90
14779;DHT22;7481;53.750;10.570;2022-12-05T05:58:38;3.90;99.90
14779;DHT22;7481;53.750;10.570;2022-12-05T06:01:25;4.00;99.90
14779;DHT22;7481;53.750;10.570;2022-12-05T06:04:12;4.10;99.90
14779;DHT22;7481;53.750;10.570;2022-12-05T06:06:59;4.20;99.90
14779;DHT22;7481;53.750;10.570;2022-12-05T06:09:46;4.30;99.90
14779;DHT22;7481;53.750;10.570;2022-12-05T06:12:33;4.40;99.90
14779;DHT22;7481;53.750;10.570;2022-12-05T06:15:20;4.40;99.90
14779;DHT22;7481;53.750;10.570;2022-12-05T06:18:07;4.40;99.90
14779;DHT22;7481;53.750;10.570;2022-12-05T06:20:56;4.30;99.90
14779;DHT22;7481;53.750;10.570;2022-12-05T06:23:43;4.10;99.90
14779;DHT22;7481;53.750;10.570;2022-12-05T06:26:30;4.10;99.90
14779;DHT22;7481;53.750;10.570;2022-12-05T06:29:17;4.00;99.90
14779;DHT22;7481;53.750;10.570;2022-12-05T06:32:10;4.00;99.90
14779;DHT22;7481;53.750;10.570;2022-12-05T06:34:57;3.90;99.90
14779;DHT22;7481;53.750;10.570;2022-12-05T06:37:44;3.80;99.90
14779;DHT22;7481;53.750;10.570;2022-12-05T06:40:32;3.80;99.90
14779;DHT22;7481;53.750;10.570;2022-12-05T06:43:19;3.80;99.90
14779;DHT22;7481;53.750;10.570;2022-12-05T06:46:08;3.70;99.90
14779;DHT22;7481;53.750;10.570;2022-12-05T06:48:56;3.70;99.90
14779;DHT22;7481;53.750;10.570;2022-12-05T06:51:43;3.70;99.90
14779;DHT22;7481;53.750;10.570;2022-12-05T06:54:30;3.70;99.90
14779;DHT22;7481;53.750;10.570;2022-12-05T06:57:17;3.70;99.90
14779;DHT22;7481;53.750;10.570;2022-12-05T07:00:05;3.60;99.90
14779;DHT22;7481;53.750;10.570;2022-12-05T07:03:11;3.60;99.90
14779;DHT22;7481;53.750;10.570;2022-12-05T07:06:02;3.60;99.90
14779;DHT22;7481;53.750;10.570;2022-12-05T07:08:50;3.60;99.90
14779;DHT22;7481;53.750;10.570;2022-12-05T07:11:37;3.60;99.90
14779;DHT22;7481;53.750;10.570;2022-12-05T07:14:24;3.60;99.90
14779;DHT22;7481;53.750;10.570;2022-12-05T07:17:35;3.60;99.90
14779;DHT22;7481;53.750;10.570;2022-12-05T07:20:22;3.70;99.90
14779;DHT22;7481;53.750;10.570;2022-12-05T07:23:10;3.70;99.90
14779;DHT22;7481;53.750;10.570;2022-12-05T07:25:57;3.70;99.90
14779;DHT22;7481;53.750;10.570;2022-12-05T07:28:44;3.70;99.90
14779;DHT22;7481;53.750;10.570;2022-12-05T07:31:31;3.60;99.90
14779;DHT22;7481;53.750;10.570;2022-12-05T07:34:19;3.60;99.90
14779;DHT22;7481;53.750;10.570;2022-12-05T07:37:06;3.50;99.90
14779;DHT22;7481;53.750;10.570;2022-12-05T07:39:54;3.50;99.90
14779;DHT22;7481;53.750;10.570;2022-12-05T07:42:41;3.60;99.90
14779;DHT22;7481;53.750;10.570;2022-12-05T07:45:28;3.60;99.90
14779;DHT22;7481;53.750;10.570;2022-12-05T07:48:15;3.50;99.90
14779;DHT22;7481;53.750;10.570;2022-12-05T07:51:06;3.50;99.90
14779;DHT22;7481;53.750;10.570;2022-12-05T07:53:54;3.50;99.90
14779;DHT22;7481;53.750;10.570;2022-12-05T07:56:41;3.40;99.90
14779;DHT22;7481;53.750;10.570;2022-12-05T07:59:33;3.40;99.90
14779;DHT22;7481;53.750;10.570;2022-12-05T08:02:20;3.40;99.90
14779;DHT22;7481;53.750;10.570;2022-12-05T08:05:08;3.40;99.90
14779;DHT22;7481;53.750;10.570;2022-12-05T08:07:54;3.50;99.90
14779;DHT22;7481;53.750;10.570;2022-12-05T08:10:42;3.50;99.90
14779;DHT22;7481;53.750;10.570;2022-12-05T08:13:29;3.50;99.90
14779;DHT22;7481;53.750;10.570;2022-12-05T08:16:18;3.50;99.90
14779;DHT22;7481;53.750;10.570;2022-12-05T08:19:09;3.50;99.90
14779;DHT22;7481;53.750;10.570;2022-12-05T08:21:56;3.50;99.90
14779;DHT22;7481;53.750;10.570;2022-12-05T08:24:43;3.60;99.90
14779;DHT22;7481;53.750;10.570;2022-12-05T08:27:31;3.60;99.90
14779;DHT22;7481;53.750;10.570;2022-12-05T08:30:18;3.60;99.90
14779;DHT22;7481;53.750;10.570;2022-12-05T08:33:05;3.60;99.90
14779;DHT22;7481;53.750;10.570;2022-12-05T08:35:52;3.60;99.90
14779;DHT22;7481;53.750;10.570;2022-12-05T08:38:39;3.60;99.90
14779;DHT22;7481;53.750;10.570;2022-12-05T08:41:26;3.60;99.90
14779;DHT22;7481;53.750;10.570;2022-12-05T08:44:15;3.60;99.90
14779;DHT22;7481;53.750;10.570;2022-12-05T08:47:04;3.50;99.90
14779;DHT22;7481;53.750;10.570;2022-12-05T08:49:51;3.50;99.90
14779;DHT22;7481;53.750;10.570;2022-12-05T08:52:37;3.40;99.90
14779;DHT22;7481;53.750;10.570;2022-12-05T08:55:24;3.40;99.90
14779;DHT22;7481;53.750;10.570;2022-12-05T08:58:11;3.40;99.90
14779;DHT22;7481;53.750;10.570;2022-12-05T09:01:04;3.40;99.90
14779;DHT22;7481;53.750;10.570;2022-12-05T09:03:51;3.30;99.90
14779;DHT22;7481;53.750;10.570;2022-12-05T09:06:38;3.30;99.90
14779;DHT22;7481;53.750;10.570;2022-12-05T09:09:26;3.40;99.90
14779;DHT22;7481;53.750;10.570;2022-12-05T09:12:13;3.40;99.90
14779;DHT22;7481;53.750;10.570;2022-12-05T09:15:00;3.40;99.90
14779;DHT22;7481;53.750;10.570;2022-12-05T09:17:47;3.40;99.90
14779;DHT22;7481;53.750;10.570;2022-12-05T09:20:34;3.40;99.90
14779;DHT22;7481;53.750;10.570;2022-12-05T09:23:21;3.40;99.90
14779;DHT22;7481;53.750;10.570;2022-12-05T09:26:15;3.70;99.90
14779;DHT22;7481;53.750;10.570;2022-12-05T09:29:02;3.60;99.90
14779;DHT22;7481;53.750;10.570;2022-12-05T09:31:49;3.50;99.90
14779;DHT22;7481;53.750;10.570;2022-12-05T09:34:38;3.50;99.90
14779;DHT22;7481;53.750;10.570;2022-12-05T09:37:25;3.60;99.90
14779;DHT22;7481;53.750;10.570;2022-12-05T09:40:27;3.70;99.90
14779;DHT22;7481;53.750;10.570;2022-12-05T09:43:30;3.80;99.90
14779;DHT22;7481;53.750;10.570;2022-12-05T09:46:35;3.80;99.90
14779;DHT22;7481;53.750;10.570;2022-12-05T09:49:24;3.70;99.90
14779;DHT22;7481;53.750;10.570;2022-12-05T09:52:21;3.60;99.90
14779;DHT22;7481;53.750;10.570;2022-12-05T09:55:15;3.60;99.90
14779;DHT22;7481;53.750;10.570;2022-12-05T09:58:04;3.60;99.90
14779;DHT22;7481;53.750;10.570;2022-12-05T10:02:13;3.60;99.90
14779;DHT22;7481;53.750;10.570;2022-12-05T10:07:44;3.60;99.90
14779;DHT22;7481;53.750;10.570;2022-12-05T10:16:40;3.60;99.90
14779;DHT22;7481;53.750;10.570;2022-12-05T10:19:32;3.60;99.90
14779;DHT22;7481;53.750;10.570;2022-12-05T10:22:26;3.60;99.90
14779;DHT22;7481;53.750;10.570;2022-12-05T10:25:19;3.60;99.90
14779;DHT22;7481;53.750;10.570;2022-12-05T10:31:32;3.80;99.90
14779;DHT22;7481;53.750;10.570;2022-12-05T10:34:37;3.90;99.90
14779;DHT22;7481;53.750;10.570;2022-12-05T10:37:25;3.90;99.90
14779;DHT22;7481;53.750;10.570;2022-12-05T10:40:12;4.00;99.90
14779;DHT22;7481;53.750;10.570;2022-12-05T10:42:59;4.00;99.90
14779;DHT22;7481;53.750;10.570;2022-12-05T10:45:47;4.00;99.90
14779;DHT22;7481;53.750;10.570;2022-12-05T10:48:38;4.00;99.90
14779;DHT22;7481;53.750;10.570;2022-12-05T10:57:23;4.00;99.90
14779;DHT22;7481;53.750;10.570;2022-12-05T11:00:13;4.00;99.90
14779;DHT22;7481;53.750;10.570;2022-12-05T11:05:54;3.90;99.90
14779;DHT22;7481;53.750;10.570;2022-12-05T11:08:41;3.90;99.90
14779;DHT22;7481;53.750;10.570;2022-12-05T11:12:02;3.80;99.90
14779;DHT22;7481;53.750;10.570;2022-12-05T11:17:49;3.90;99.90
14779;DHT22;7481;53.750;10.570;2022-12-05T11:23:29;3.90;99.90
14779;DHT22;7481;53.750;10.570;2022-12-05T11:26:36;3.90;99.90
14779;DHT22;7481;53.750;10.570;2022-12-05T11:29:37;3.80;99.90
14779;DHT22;7481;53.750;10.570;2022-12-05T11:32:32;3.70;99.90
14779;DHT22;7481;53.750;10.570;2022-12-05T11:35:25;3.70;99.90
14779;DHT22;7481;53.750;10.570;2022-12-05T11:38:14;3.70;99.90
14779;DHT22;7481;53.750;10.570;2022-12-05T11:51:09;3.90;99.90
14779;DHT22;7481;53.750;10.570;2022-12-05T11:54:10;3.80;99.90
14779;DHT22;7481;53.750;10.570;2022-12-05T11:57:12;3.90;99.90
14779;DHT22;7481;53.750;10.570;2022-12-05T12:06:32;3.80;99.90
14779;DHT22;7481;53.750;10.570;2022-12-05T12:33:08;4.10;99.90
14779;DHT22;7481;53.750;10.570;2022-12-05T12:36:23;4.10;99.90
14779;DHT22;7481;53.750;10.570;2022-12-05T12:42:54;4.00;99.90
14779;DHT22;7481;53.750;10.570;2022-12-05T12:51:32;4.10;99.90
14779;DHT22;7481;53.750;10.570;2022-12-05T12:57:47;4.00;99.90
14779;DHT22;7481;53.750;10.570;2022-12-05T13:01:01;4.10;99.90
14779;DHT22;7481;53.750;10.570;2022-12-05T13:03:57;4.10;99.90
14779;DHT22;7481;53.750;10.570;2022-12-05T13:06:59;4.10;99.90
14779;DHT22;7481;53.750;10.570;2022-12-05T13:10:12;4.10;99.90
14779;DHT22;7481;53.750;10.570;2022-12-05T13:13:04;4.10;99.90
14779;DHT22;7481;53.750;10.570;2022-12-05T13:15:57;4.10;99.90
14779;DHT22;7481;53.750;10.570;2022-12-05T13:18:46;4.10;99.90
14779;DHT22;7481;53.750;10.570;2022-12-05T13:21:34;4.10;99.90
14779;DHT22;7481;53.750;10.570;2022-12-05T13:24:25;4.10;99.90
14779;DHT22;7481;53.750;10.570;2022-12-05T13:27:18;4.10;99.90
14779;DHT22;7481;53.750;10.570;2022-12-05T13:30:14;4.10;99.90
14779;DHT22;7481;53.750;10.570;2022-12-05T13:33:07;4.00;99.90
14779;DHT22;7481;53.750;10.570;2022-12-05T13:35:56;4.00;99.90
14779;DHT22;7481;53.750;10.570;2022-12-05T13:45:17;4.00;99.90
14779;DHT22;7481;53.750;10.570;2022-12-05T13:48:20;4.00;99.90
14779;DHT22;7481;53.750;10.570;2022-12-05T13:51:12;4.00;99.90
14779;DHT22;7481;53.750;10.570;2022-12-05T13:54:14;4.00;99.90
14779;DHT22;7481;53.750;10.570;2022-12-05T13:57:02;4.00;99.90
14779;DHT22;7481;53.750;10.570;2022-12-05T14:02:58;4.00;99.90
14779;DHT22;7481;53.750;10.570;2022-12-05T14:05:51;4.00;99.90
14779;DHT22;7481;53.750;10.570;2022-12-05T14:11:26;3.90;99.90
14779;DHT22;7481;53.750;10.570;2022-12-05T14:17:41;3.90;99.90
14779;DHT22;7481;53.750;10.570;2022-12-05T14:32:39;4.00;99.90
14779;DHT22;7481;53.750;10.570;2022-12-05T14:36:04;3.90;99.90
14779;DHT22;7481;53.750;10.570;2022-12-05T14:38:43;3.80;99.90
14779;DHT22;7481;53.750;10.570;2022-12-05T14:41:32;3.90;99.90
14779;DHT22;7481;53.750;10.570;2022-12-05T14:44:21;4.00;99.90
14779;DHT22;7481;53.750;10.570;2022-12-05T14:47:17;3.90;99.90
14779;DHT22;7481;53.750;10.570;2022-12-05T14:56:20;3.90;99.90
14779;DHT22;7481;53.750;10.570;2022-12-05T14:59:45;4.00;99.90
14779;DHT22;7481;53.750;10.570;2022-12-05T15:02:43;3.90;99.90
14779;DHT22;7481;53.750;10.570;2022-12-05T15:05:33;3.90;99.90
14779;DHT22;7481;53.750;10.570;2022-12-05T15:08:20;3.90;99.90
14779;DHT22;7481;53.750;10.570;2022-12-05T15:11:13;3.90;99.90
14779;DHT22;7481;53.750;10.570;2022-12-05T15:14:20;3.90;99.90
14779;DHT22;7481;53.750;10.570;2022-12-05T15:17:13;3.90;99.90
14779;DHT22;7481;53.750;10.570;2022-12-05T15:20:10;4.00;99.90
14779;DHT22;7481;53.750;10.570;2022-12-05T15:23:01;3.90;99.90
14779;DHT22;7481;53.750;10.570;2022-12-05T15:25:51;3.90;99.90
14779;DHT22;7481;53.750;10.570;2022-12-05T15:40:19;3.60;99.90
14779;DHT22;7481;53.750;10.570;2022-12-05T15:58:38;3.70;99.90
14779;DHT22;7481;53.750;10.570;2022-12-05T16:01:26;3.70;99.90
14779;DHT22;7481;53.750;10.570;2022-12-05T16:04:29;3.70;99.90
14779;DHT22;7481;53.750;10.570;2022-12-05T16:07:17;3.70;99.90
14779;DHT22;7481;53.750;10.570;2022-12-05T16:10:10;3.70;99.90
14779;DHT22;7481;53.750;10.570;2022-12-05T16:13:04;3.60;99.90
14779;DHT22;7481;53.750;10.570;2022-12-05T16:15:53;3.60;99.90
14779;DHT22;7481;53.750;10.570;2022-12-05T16:18:54;3.60;99.90
14779;DHT22;7481;53.750;10.570;2022-12-05T16:21:45;3.70;99.90
14779;DHT22;7481;53.750;10.570;2022-12-05T16:24:44;3.60;99.90
14779;DHT22;7481;53.750;10.570;2022-12-05T16:33:13;3.80;99.90
14779;DHT22;7481;53.750;10.570;2022-12-05T16:36:08;3.60;99.90
14779;DHT22;7481;53.750;10.570;2022-12-05T16:41:54;3.40;99.90
14779;DHT22;7481;53.750;10.570;2022-12-05T16:56:24;3.60;99.90
14779;DHT22;7481;53.750;10.570;2022-12-05T16:59:20;3.30;99.90
14779;DHT22;7481;53.750;10.570;2022-12-05T18:17:50;3.60;99.90
14779;DHT22;7481;53.750;10.570;2022-12-05T18:20:37;3.50;99.90
14779;DHT22;7481;53.750;10.570;2022-12-05T18:23:24;3.40;99.90
14779;DHT22;7481;53.750;10.570;2022-12-05T18:26:11;3.40;99.90
14779;DHT22;7481;53.750;10.570;2022-12-05T18:28:58;3.30;99.90
14779;DHT22;7481;53.750;10.570;2022-12-05T18:31:45;3.30;99.90
14779;DHT22;7481;53.750;10.570;2022-12-05T18:34:34;3.20;99.90
14779;DHT22;7481;53.750;10.570;2022-12-05T18:37:21;3.10;99.90
14779;DHT22;7481;53.750;10.570;2022-12-05T18:40:09;3.10;99.90
14779;DHT22;7481;53.750;10.570;2022-12-05T19:02:37;3.10;99.90
14779;DHT22;7481;53.750;10.570;2022-12-05T19:05:24;2.80;99.90
14779;DHT22;7481;53.750;10.570;2022-12-05T19:08:11;2.80;99.90
14779;DHT22;7481;53.750;10.570;2022-12-05T19:11:03;2.90;99.90
14779;DHT22;7481;53.750;10.570;2022-12-05T19:14:02;2.90;99.90
14779;DHT22;7481;53.750;10.570;2022-12-05T19:16:51;2.90;99.90
14779;DHT22;7481;53.750;10.570;2022-12-05T19:19:45;2.90;99.90
14779;DHT22;7481;53.750;10.570;2022-12-05T19:22:32;2.80;99.90
14779;DHT22;7481;53.750;10.570;2022-12-05T19:25:19;2.80;99.90
14779;DHT22;7481;53.750;10.570;2022-12-05T19:28:06;2.90;99.90
14779;DHT22;7481;53.750;10.570;2022-12-05T19:31:04;2.80;99.90
14779;DHT22;7481;53.750;10.570;2022-12-05T19:33:53;2.70;99.90
14779;DHT22;7481;53.750;10.570;2022-12-05T19:36:43;2.70;99.90
14779;DHT22;7481;53.750;10.570;2022-12-05T19:39:30;2.60;99.90
14779;DHT22;7481;53.750;10.570;2022-12-05T19:42:17;2.60;99.90
14779;DHT22;7481;53.750;10.570;2022-12-05T19:45:04;2.60;99.90
14779;DHT22;7481;53.750;10.570;2022-12-05T19:48:00;2.60;99.90
14779;DHT22;7481;53.750;10.570;2022-12-05T19:50:54;2.60;99.90
14779;DHT22;7481;53.750;10.570;2022-12-05T19:53:42;2.60;99.90
14779;DHT22;7481;53.750;10.570;2022-12-05T19:56:32;2.60;99.90
14779;DHT22;7481;53.750;10.570;2022-12-05T19:59:19;2.60;99.90
14779;DHT22;7481;53.750;10.570;2022-12-05T20:02:07;2.60;99.90
14779;DHT22;7481;53.750;10.570;2022-12-05T20:04:54;2.60;99.90
14779;DHT22;7481;53.750;10.570;2022-12-05T20:07:41;2.50;99.90
14779;DHT22;7481;53.750;10.570;2022-12-05T20:10:28;2.50;99.90
14779;DHT22;7481;53.750;10.570;2022-12-05T20:13:19;2.40;99.90
14779;DHT22;7481;53.750;10.570;2022-12-05T20:16:29;2.50;99.90
14779;DHT22;7481;53.750;10.570;2022-12-05T20:19:17;2.30;99.90
14779;DHT22;7481;53.750;10.570;2022-12-05T20:22:04;2.50;99.90
14779;DHT22;7481;53.750;10.570;2022-12-05T20:24:50;2.50;99.90
14779;DHT22;7481;53.750;10.570;2022-12-05T20:27:37;2.40;99.90
14779;DHT22;7481;53.750;10.570;2022-12-05T20:30:24;2.50;99.90
14779;DHT22;7481;53.750;10.570;2022-12-05T20:33:12;2.50;99.90
14779;DHT22;7481;53.750;10.570;2022-12-05T20:36:04;2.50;99.90
14779;DHT22;7481;53.750;10.570;2022-12-05T20:39:00;2.50;99.90
14779;DHT22;7481;53.750;10.570;2022-12-05T20:41:48;2.40;99.90
14779;DHT22;7481;53.750;10.570;2022-12-05T20:44:36;2.40;99.90
14779;DHT22;7481;53.750;10.570;2022-12-05T20:47:26;2.50;99.90
14779;DHT22;7481;53.750;10.570;2022-12-05T20:53:02;2.40;99.90
14779;DHT22;7481;53.750;10.570;2022-12-05T20:55:50;2.70;99.90
14779;DHT22;7481;53.750;10.570;2022-12-05T20:58:40;2.40;99.90
14779;DHT22;7481;53.750;10.570;2022-12-05T21:01:33;2.40;99.90
14779;DHT22;7481;53.750;10.570;2022-12-05T21:04:23;2.50;99.90
14779;DHT22;7481;53.750;10.570;2022-12-05T21:07:10;2.50;99.90
14779;DHT22;7481;53.750;10.570;2022-12-05T21:09:58;2.60;99.90
14779;DHT22;7481;53.750;10.570;2022-12-05T21:12:54;2.60;99.90
14779;DHT22;7481;53.750;10.570;2022-12-05T21:15:41;2.20;99.90
14779;DHT22;7481;53.750;10.570;2022-12-05T21:18:28;2.40;99.90
14779;DHT22;7481;53.750;10.570;2022-12-05T21:21:19;2.60;99.90
14779;DHT22;7481;53.750;10.570;2022-12-05T21:24:10;2.70;99.90
14779;DHT22;7481;53.750;10.570;2022-12-05T21:26:57;2.50;99.90
14779;DHT22;7481;53.750;10.570;2022-12-05T21:29:44;2.60;99.90
14779;DHT22;7481;53.750;10.570;2022-12-05T21:32:30;2.60;99.90
14779;DHT22;7481;53.750;10.570;2022-12-05T21:35:17;2.60;99.90
14779;DHT22;7481;53.750;10.570;2022-12-05T21:38:04;2.60;99.90
14779;DHT22;7481;53.750;10.570;2022-12-05T21:40:53;2.70;99.90
14779;DHT22;7481;53.750;10.570;2022-12-05T21:43:43;2.80;99.90
14779;DHT22;7481;53.750;10.570;2022-12-05T21:46:41;2.80;99.90
14779;DHT22;7481;53.750;10.570;2022-12-05T21:49:30;2.80;99.90
14779;DHT22;7481;53.750;10.570;2022-12-05T21:52:17;2.90;99.90
14779;DHT22;7481;53.750;10.570;2022-12-05T21:55:08;2.80;99.90
14779;DHT22;7481;53.750;10.570;2022-12-05T21:57:55;2.70;99.90
14779;DHT22;7481;53.750;10.570;2022-12-05T22:00:43;2.80;99.90
14779;DHT22;7481;53.750;10.570;2022-12-05T22:03:33;2.60;99.90
14779;DHT22;7481;53.750;10.570;2022-12-05T22:06:24;2.80;99.90
14779;DHT22;7481;53.750;10.570;2022-12-05T22:09:11;2.60;99.90
14779;DHT22;7481;53.750;10.570;2022-12-05T22:11:59;2.60;99.90
14779;DHT22;7481;53.750;10.570;2022-12-05T22:14:48;2.80;99.90
14779;DHT22;7481;53.750;10.570;2022-12-05T22:17:35;2.70;99.90
14779;DHT22;7481;53.750;10.570;2022-12-05T22:20:22;2.80;99.90
14779;DHT22;7481;53.750;10.570;2022-12-05T22:23:09;2.80;99.90
14779;DHT22;7481;53.750;10.570;2022-12-05T22:26:11;2.80;99.90
14779;DHT22;7481;53.750;10.570;2022-12-05T22:28:58;2.80;99.90
14779;DHT22;7481;53.750;10.570;2022-12-05T22:31:45;2.80;99.90
14779;DHT22;7481;53.750;10.570;2022-12-05T22:34:32;2.80;99.90
14779;DHT22;7481;53.750;10.570;2022-12-05T22:37:19;2.80;99.90
14779;DHT22;7481;53.750;10.570;2022-12-05T22:40:07;2.80;99.90
14779;DHT22;7481;53.750;10.570;2022-12-05T22:42:54;2.80;99.90
14779;DHT22;7481;53.750;10.570;2022-12-05T22:45:41;2.80;99.90
14779;DHT22;7481;53.750;10.570;2022-12-05T22:48:28;2.90;99.90
14779;DHT22;7481;53.750;10.570;2022-12-05T22:51:18;2.80;99.90
14779;DHT22;7481;53.750;10.570;2022-12-05T22:54:05;2.80;99.90
14779;DHT22;7481;53.750;10.570;2022-12-05T22:56:52;2.80;99.90
14779;DHT22;7481;53.750;10.570;2022-12-05T22:59:39;2.80;99.90
14779;DHT22;7481;53.750;10.570;2022-12-05T23:02:28;2.80;99.90
14779;DHT22;7481;53.750;10.570;2022-12-05T23:05:19;2.90;99.90
14779;DHT22;7481;53.750;10.570;2022-12-05T23:08:11;2.90;99.90
14779;DHT22;7481;53.750;10.570;2022-12-05T23:11:00;2.90;99.90